M I D A S
Marine Information and Data Acquisition System
Tripno 780 of the Zeeleeuw from 2004-08-18 07:47:36 to 2004-08-18 11:48:37
Back to CruiseResearch ActivitiesStationsMapUnderway DataData graphs

EquipmentUnitsComments
TimeDGPSUTC
LatitudeDGPSDM.mWGS84
LongitudeDGPSDM.mWGS84
SpeedMeteo Stationm/sRelative wind speed
DirectionMeteo StationdegRelative wind direction
TemperatureMeteo Stationdeg CelciusAir temperature
PressureMeteo StationPaAtmospheric pressure
HumidityMeteo Station%Relative humidity
Missing or incorrect values are displayed as -999
Metereological data collected by the RV Zeeleeuw from 2004-08-18 07:47:36 to 2004-08-18 11:48:37
Time Latitude Longitude Speed Direction Temperature Pressure Humidity
2004-08-18 07:48 51°13.595 2°56.114 4.6 65 20.4 100200 75
2004-08-18 07:49 51°13.603 2°56.092 3.1 103 20.4 100180 75
2004-08-18 07:50 51°13.622 2°56.027 6.5 98 20.5 100200 74
2004-08-18 07:51 51°13.634 2°56.003 4.1 115 20.5 100190 74
2004-08-18 07:52 51°13.668 2°55.911 5.2 118 20.5 100190 74
2004-08-18 07:53 51°13.694 2°55.813 6 144 20.6 100190 74
2004-08-18 07:54 51°13.693 2°55.739 6.7 152 20.6 100180 74
2004-08-18 07:55 51°13.728 2°55.725 4.7 235 20.6 100190 74
2004-08-18 07:56 51°13.816 2°55.641 2.8 262 20.6 100180 74
2004-08-18 07:57 51°13.946 2°55.547 1.5 296 20.7 100180 74
2004-08-18 07:58 51°14.084 2°55.449 0.7 182 20.8 100190 73
2004-08-18 07:59 51°14.231 2°55.318 4.2 334 20.8 100180 73
2004-08-18 08:00 51°14.352 2°55.106 7 353 20.9 100180 72
2004-08-18 08:01 51°14.455 2°54.812 12.8 308 21 100150 72
2004-08-18 08:02 51°14.498 2°54.454 11.8 323 21 100160 73
2004-08-18 08:03 51°14.437 2°54.108 17.7 337 20.9 100140 73
2004-08-18 08:04 51°14.317 2°53.794 13.9 338 20.8 100150 73
2004-08-18 08:05 51°14.194 2°53.476 15.9 342 20.7 100110 72
2004-08-18 08:06 51°14.07 2°53.154 17.2 346 20.7 100140 72
2004-08-18 08:07 51°13.945 2°52.83 15.9 341 20.7 100140 72
2004-08-18 08:08 51°13.818 2°52.508 19.3 344 20.7 100140 73
2004-08-18 08:09 51°13.695 2°52.182 15.3 341 20.7 100130 72
2004-08-18 08:10 51°13.567 2°51.86 14.6 344 20.7 100140 73
2004-08-18 08:11 51°13.44 2°51.535 16.2 344 20.7 100150 74
2004-08-18 08:12 51°13.32 2°51.221 17.2 344 20.7 100150 73
2004-08-18 08:13 51°13.193 2°50.883 15.7 345 20.7 100140 74
2004-08-18 08:14 51°13.078 2°50.55 14.3 344 20.7 100150 73
2004-08-18 08:15 51°12.96 2°50.219 17.6 340 20.7 100150 73
2004-08-18 08:16 51°12.843 2°49.887 16.1 342 20.7 100140 73
2004-08-18 08:17 51°12.725 2°49.553 17.9 344 20.7 100150 73
2004-08-18 08:18 51°12.609 2°49.22 17.3 347 20.7 100130 72
2004-08-18 08:19 51°12.495 2°48.885 15.9 340 20.7 100140 72
2004-08-18 08:20 51°12.378 2°48.553 18.3 339 20.7 100130 72
2004-08-18 08:21 51°12.262 2°48.222 15.6 336 20.7 100120 72
2004-08-18 08:22 51°12.145 2°47.89 13.9 341 20.7 100130 73
2004-08-18 08:23 51°12.033 2°47.566 14 338 20.7 100130 73
2004-08-18 08:24 51°11.916 2°47.217 16.8 343 20.7 100140 73
2004-08-18 08:25 51°11.802 2°46.883 20 343 20.7 100130 72
2004-08-18 08:26 51°11.679 2°46.558 17.3 344 20.7 100100 72
2004-08-18 08:27 51°11.556 2°46.237 16.4 338 20.7 100130 71
2004-08-18 08:28 51°11.46 2°45.89 16.2 334 20.7 100130 72
2004-08-18 08:29 51°11.361 2°45.545 16.5 340 20.7 100130 73
2004-08-18 08:30 51°11.264 2°45.2 17.3 337 20.7 100130 73
2004-08-18 08:31 51°11.168 2°44.853 17.5 338 20.8 100130 73
2004-08-18 08:32 51°11.072 2°44.507 14.3 336 20.8 100120 71
2004-08-18 08:33 51°10.974 2°44.16 14.1 333 20.9 100120 73
2004-08-18 08:34 51°10.878 2°43.813 14.3 344 20.8 100120 71
2004-08-18 08:35 51°10.785 2°43.464 15.1 336 20.9 100120 70
2004-08-18 08:36 51°10.689 2°43.116 14.3 336 20.9 100120 70
2004-08-18 08:37 51°10.59 2°42.771 14.7 343 20.9 100130 71
2004-08-18 08:38 51°10.501 2°42.421 15.8 345 20.9 100120 70
2004-08-18 08:39 51°10.408 2°42.075 14.7 342 20.9 100130 70
2004-08-18 08:40 51°10.309 2°41.731 15.6 337 20.9 100120 70
2004-08-18 08:41 51°10.221 2°41.379 14.6 345 20.9 100130 71
2004-08-18 08:42 51°10.127 2°41.044 16.2 335 21 100120 71
2004-08-18 08:43 51°10.051 2°40.674 16 326 21 100120 70
2004-08-18 08:44 51°10.027 2°40.299 16.6 325 21 100130 69
2004-08-18 08:45 51°9.945 2°39.943 14.8 343 21 100130 71
2004-08-18 08:46 51°9.848 2°39.597 15.9 329 21 100120 69
2004-08-18 08:47 51°9.751 2°39.249 17.6 341 21 100120 69
2004-08-18 08:48 51°9.657 2°38.902 16.6 334 21 100120 69
2004-08-18 08:49 51°9.564 2°38.565 14.7 342 21 100130 71
2004-08-18 08:50 51°9.469 2°38.202 16.2 334 21 100130 70
2004-08-18 08:51 51°9.373 2°37.854 17 337 21 100130 70
2004-08-18 08:52 51°9.293 2°37.5 15.1 324 21 100130 70
2004-08-18 08:53 51°9.232 2°37.248 12.5 10 21 100130 70
2004-08-18 08:54 51°9.149 2°37.237 7.4 80 21 100150 70
2004-08-18 08:55 51°9.135 2°37.303 7.8 142 20.9 100170 73
2004-08-18 08:56 51°9.135 2°37.3 9.9 144 20.9 100180 72
2004-08-18 08:57 51°9.136 2°37.299 9.9 113 20.9 100170 72
2004-08-18 08:58 51°9.136 2°37.289 10.2 111 20.9 100160 70
2004-08-18 08:59 51°9.137 2°37.272 10.9 108 20.9 100170 70
2004-08-18 09:00 51°9.136 2°37.262 11.9 106 21 100170 70
2004-08-18 09:01 51°9.133 2°37.26 10.7 106 21 100170 69
2004-08-18 09:02 51°9.132 2°37.264 11.1 94 21 100170 69
2004-08-18 09:03 51°9.129 2°37.268 11 102 21 100170 70
2004-08-18 09:04 51°9.124 2°37.269 9.7 101 21.1 100170 71
2004-08-18 09:05 51°9.12 2°37.268 -999 -999 -999 -999 -999
2004-08-18 09:07 51°9.112 2°37.263 9 104 21.1 100180 70
2004-08-18 09:08 51°9.107 2°37.259 10.4 95 21.1 100170 71
2004-08-18 09:09 51°9.101 2°37.253 8.9 100 21 100170 69
2004-08-18 09:10 51°9.095 2°37.25 10.5 96 21.1 100170 70
2004-08-18 09:11 51°9.09 2°37.249 10.3 96 21.1 100160 69
2004-08-18 09:12 51°9.084 2°37.25 10.1 104 21 -999 67
2004-08-18 09:13 51°9.081 2°37.251 11.5 103 21.1 100160 69
2004-08-18 09:14 51°9.078 2°37.253 9.1 112 21.1 100170 70
2004-08-18 09:15 51°9.075 2°37.256 8.7 108 21.1 100170 70
2004-08-18 09:16 51°9.072 2°37.259 9.2 116 21 100170 70
2004-08-18 09:17 51°9.069 2°37.263 9.4 120 21.1 100170 71
2004-08-18 09:18 51°9.068 2°37.268 9.5 125 21 100160 71
2004-08-18 09:19 51°9.068 2°37.273 9.3 116 21 100170 71
2004-08-18 09:20 51°9.066 2°37.279 10.5 112 21 100170 71
2004-08-18 09:21 51°9.063 2°37.286 10.2 95 21 100160 70
2004-08-18 09:22 51°9.045 2°37.308 9.7 47 21 100160 70
2004-08-18 09:23 51°8.997 2°37.309 10.7 357 20.9 100160 69
2004-08-18 09:24 51°8.958 2°37.218 10.8 286 21.1 100150 70
2004-08-18 09:25 51°8.993 2°37.12 7.5 218 21.1 100180 70
2004-08-18 09:26 51°9.062 2°37.129 7.7 156 21.2 100190 69
2004-08-18 09:27 51°9.116 2°37.172 6.1 144 21.2 100190 69
2004-08-18 09:28 51°9.153 2°37.22 9.2 136 21.1 100180 69
2004-08-18 09:29 51°9.178 2°37.283 11.3 135 21.2 100180 68
2004-08-18 09:30 51°9.197 2°37.343 8.6 131 21.2 100180 66
2004-08-18 09:31 51°9.215 2°37.402 9.3 131 21.2 100180 67
2004-08-18 09:32 51°9.233 2°37.461 7.6 130 21.3 100190 67
2004-08-18 09:33 51°9.254 2°37.52 7.2 129 21.3 100190 67
2004-08-18 09:34 51°9.267 2°37.582 7.1 113 21.3 100180 70
2004-08-18 09:35 51°9.277 2°37.642 9.3 124 21.3 100190 68
2004-08-18 09:36 51°9.289 2°37.702 8.1 126 21.3 100180 66
2004-08-18 09:37 51°9.3 2°37.764 8.3 127 21.4 100180 67
2004-08-18 09:38 51°9.31 2°37.826 8 119 21.4 100180 65
2004-08-18 09:39 51°9.318 2°37.889 7.6 117 21.5 100180 65
2004-08-18 09:40 51°9.331 2°37.95 7.7 125 21.5 100180 65
2004-08-18 09:41 51°9.348 2°38.006 5.9 128 21.6 100170 65
2004-08-18 09:42 51°9.372 2°38.06 6.3 126 21.6 100170 65
2004-08-18 09:43 51°9.393 2°38.115 7.1 120 21.6 100160 64
2004-08-18 09:44 51°9.404 2°38.176 7.9 116 21.7 100160 66
2004-08-18 09:45 51°9.412 2°38.239 6.8 114 21.7 100160 64
2004-08-18 09:46 51°9.423 2°38.303 7.5 118 21.7 100160 66
2004-08-18 09:47 51°9.439 2°38.363 9.3 119 21.7 100150 63
2004-08-18 09:48 51°9.457 2°38.422 7.6 125 21.8 100150 62
2004-08-18 09:49 51°9.474 2°38.481 7.3 124 21.8 100160 64
2004-08-18 09:50 51°9.495 2°38.54 7.8 135 21.8 100160 62
2004-08-18 09:51 51°9.517 2°38.598 6.7 132 21.8 100160 61
2004-08-18 09:52 51°9.535 2°38.662 6.8 122 21.9 100160 61
2004-08-18 09:53 51°9.549 2°38.728 7.5 108 21.9 100150 62
2004-08-18 09:54 51°9.559 2°38.792 7.1 110 21.9 100160 63
2004-08-18 09:55 51°9.568 2°38.858 7.7 111 21.9 100160 61
2004-08-18 09:56 51°9.574 2°38.927 9.9 107 22 100150 64
2004-08-18 09:57 51°9.585 2°38.992 8.2 113 22 100160 65
2004-08-18 09:58 51°9.6 2°39.057 10.2 117 21.9 100160 65
2004-08-18 09:59 51°9.618 2°39.122 8.7 115 21.9 100160 65
2004-08-18 10:00 51°9.638 2°39.185 10.2 119 21.8 100170 64
2004-08-18 10:01 51°9.655 2°39.244 9.6 109 21.8 100160 64
2004-08-18 10:02 51°9.664 2°39.309 7.9 103 21.8 100160 63
2004-08-18 10:03 51°9.666 2°39.374 7.2 99 21.8 100150 63
2004-08-18 10:04 51°9.661 2°39.42 6.4 94 21.9 100150 62
2004-08-18 10:05 51°9.654 2°39.45 8.4 79 21.9 100150 64
2004-08-18 10:06 51°9.648 2°39.479 8.5 87 21.9 100150 67
2004-08-18 10:07 51°9.658 2°39.532 6.3 131 21.9 100150 64
2004-08-18 10:08 51°9.696 2°39.578 5.8 130 22 100160 63
2004-08-18 10:09 51°9.735 2°39.628 9.1 118 22.1 100160 65
2004-08-18 10:10 51°9.773 2°39.683 8 127 22.1 100150 62
2004-08-18 10:11 51°9.805 2°39.73 6.2 121 22.1 100160 65
2004-08-18 10:12 51°9.832 2°39.774 11 118 22.1 100150 65
2004-08-18 10:13 51°9.853 2°39.818 8.6 114 22.1 100150 61
2004-08-18 10:14 51°9.875 2°39.867 7.2 129 22.1 100160 61
2004-08-18 10:15 51°9.896 2°39.915 8.3 114 22.2 100150 61
2004-08-18 10:16 51°9.918 2°39.962 6.7 109 22.2 100150 61
2004-08-18 10:17 51°9.944 2°40.011 8.8 116 22.2 100150 61
2004-08-18 10:18 51°9.97 2°40.056 8.1 113 22.3 100150 61
2004-08-18 10:19 51°9.996 2°40.1 9.8 124 22.3 100140 60
2004-08-18 10:20 51°10.022 2°40.145 8 42 22.3 100140 60
2004-08-18 10:21 51°10.047 2°40.192 8.7 124 22.3 100150 60
2004-08-18 10:22 51°10.073 2°40.239 8.3 133 22.3 100150 59
2004-08-18 10:23 51°10.098 2°40.287 7.9 127 22.3 100150 59
2004-08-18 10:24 51°10.124 2°40.334 6.7 133 22.3 100150 63
2004-08-18 10:25 51°10.152 2°40.379 5.8 124 22.4 100150 60
2004-08-18 10:26 51°10.179 2°40.423 6.1 121 22.4 100160 62
2004-08-18 10:27 51°10.204 2°40.467 6.9 114 22.4 100160 62
2004-08-18 10:28 51°10.23 2°40.512 8.4 121 22.4 100160 62
2004-08-18 10:29 51°10.253 2°40.559 7.4 117 22.4 100160 62
2004-08-18 10:30 51°10.273 2°40.609 7.6 111 22.4 100160 64
2004-08-18 10:31 51°10.292 2°40.66 7.9 120 22.4 100160 63
2004-08-18 10:32 51°10.314 2°40.708 7.7 119 22.4 100160 64
2004-08-18 10:33 51°10.339 2°40.755 10.1 110 22.4 100150 63
2004-08-18 10:34 51°10.362 2°40.8 7.8 121 22.3 100150 61
2004-08-18 10:35 51°10.386 2°40.848 8.2 115 22.4 100150 61
2004-08-18 10:36 51°10.41 2°40.895 9.2 131 22.4 100160 64
2004-08-18 10:37 51°10.435 2°40.942 7.6 126 22.4 100150 60
2004-08-18 10:38 51°10.462 2°40.988 6.8 131 22.5 100160 63
2004-08-18 10:39 51°10.494 2°41.029 7.2 134 22.5 100160 62
2004-08-18 10:40 51°10.528 2°41.068 6.5 120 22.5 100160 62
2004-08-18 10:41 51°10.561 2°41.108 8.9 140 22.5 100170 61
2004-08-18 10:42 51°10.595 2°41.148 7.2 146 22.5 100170 57
2004-08-18 10:43 51°10.628 2°41.193 5.7 145 22.5 100170 58
2004-08-18 10:44 51°10.661 2°41.235 6.6 141 22.5 100170 60
2004-08-18 10:45 51°10.695 2°41.279 6.3 127 22.6 100160 62
2004-08-18 10:46 51°10.727 2°41.323 6.7 128 22.6 100160 63
2004-08-18 10:47 51°10.759 2°41.367 7.2 130 22.6 100160 61
2004-08-18 10:48 51°10.789 2°41.417 10.1 127 22.6 100160 63
2004-08-18 10:49 51°10.811 2°41.474 9.2 130 22.5 100160 62
2004-08-18 10:50 51°10.829 2°41.534 8.1 128 22.5 100160 62
2004-08-18 10:51 51°10.843 2°41.594 8.3 105 22.6 100160 61
2004-08-18 10:52 51°10.849 2°41.645 7.4 109 22.6 100160 60
2004-08-18 10:53 51°10.85 2°41.683 8.6 94 22.7 100160 62
2004-08-18 10:54 51°10.85 2°41.721 9.2 87 22.6 100160 62
2004-08-18 10:55 51°10.86 2°41.847 15.6 88 22.6 100160 62
2004-08-18 10:56 51°10.89 2°42.042 10.2 93 22.6 100150 61
2004-08-18 10:57 51°10.939 2°42.248 11.1 96 22.6 100170 61
2004-08-18 10:58 51°10.987 2°42.457 8.4 94 22.7 100160 61
2004-08-18 10:59 51°11.036 2°42.668 8.8 86 22.7 100160 61
2004-08-18 11:00 51°11.086 2°42.881 8.6 90 22.7 100160 61
2004-08-18 11:01 51°11.144 2°43.116 7.8 83 22.7 100150 61
2004-08-18 11:02 51°11.196 2°43.358 9.9 81 22.7 100150 62
2004-08-18 11:03 51°11.245 2°43.588 8.1 72 22.7 100140 63
2004-08-18 11:04 51°11.29 2°43.8 8.6 70 22.6 100140 61
2004-08-18 11:06 51°11.342 2°44.033 8.8 77 22.6 100130 62
2004-08-18 11:07 51°11.386 2°44.236 8.7 75 22.6 100130 61
2004-08-18 11:08 51°11.421 2°44.423 6.9 70 22.7 100130 61
2004-08-18 11:09 51°11.42 2°44.529 8.2 88 22.6 100140 62
2004-08-18 11:10 51°11.425 2°44.617 8.6 91 22.7 100140 63
2004-08-18 11:11 51°11.471 2°44.855 10.5 81 22.7 100130 61
2004-08-18 11:12 51°11.518 2°45.164 7.2 79 22.7 100130 61
2004-08-18 11:13 51°11.564 2°45.444 7.5 74 22.7 100120 61
2004-08-18 11:14 51°11.619 2°45.737 10.3 78 22.8 100120 60
2004-08-18 11:15 51°11.692 2°46.049 9.9 92 22.8 100140 59
2004-08-18 11:16 51°11.768 2°46.312 8 80 22.9 100140 59
2004-08-18 11:17 51°11.869 2°46.605 9.5 84 22.9 100140 59
2004-08-18 11:18 51°11.975 2°46.874 5.7 77 22.9 100150 59
2004-08-18 11:19 51°12.069 2°47.13 10.6 87 22.9 100150 58
2004-08-18 11:20 51°12.159 2°47.39 11.5 97 23 100150 60
2004-08-18 11:21 51°12.247 2°47.654 9.6 97 23 100160 57
2004-08-18 11:22 51°12.333 2°47.923 9 113 23.1 100160 58
2004-08-18 11:23 51°12.425 2°48.213 7.7 111 23 100170 57
2004-08-18 11:24 51°12.513 2°48.475 5.7 78 23 100160 55
2004-08-18 11:25 51°12.603 2°48.75 10.2 87 23.1 100160 60
2004-08-18 11:26 51°12.688 2°49.013 9.3 78 23.1 100150 58
2004-08-18 11:27 51°12.775 2°49.287 8.9 77 23.1 100140 57
2004-08-18 11:28 51°12.876 2°49.602 7.4 73 23.2 100150 56
2004-08-18 11:29 51°12.964 2°49.876 7.7 78 23.2 100140 58
2004-08-18 11:31 51°13.056 2°50.164 10.9 81 23.2 100140 58
2004-08-18 11:32 51°13.143 2°50.436 11 84 23.3 100140 58
2004-08-18 11:33 51°13.233 2°50.707 13.4 92 23.3 100140 58
2004-08-18 11:34 51°13.323 2°50.988 9.3 98 23.2 100150 56
2004-08-18 11:35 51°13.41 2°51.258 8.5 77 23.3 100150 59
2004-08-18 11:36 51°13.495 2°51.535 9.9 83 23.2 100150 58
2004-08-18 11:37 51°13.581 2°51.812 9.3 103 23.2 100140 57
2004-08-18 11:38 51°13.667 2°52.088 11 90 23.3 100140 57
2004-08-18 11:39 51°13.761 2°52.39 12.9 92 23.3 100130 56
2004-08-18 11:40 51°13.863 2°52.697 9.8 83 23.3 100150 58
2004-08-18 11:41 51°13.968 2°53.006 9.7 95 23.3 100150 55
2004-08-18 11:42 51°14.068 2°53.284 5.6 90 23.3 100150 54
2004-08-18 11:43 51°14.181 2°53.576 9.6 85 23.4 100150 57
2004-08-18 11:44 51°14.306 2°53.84 6.3 103 23.5 100150 55
2004-08-18 11:45 51°14.402 2°54.11 10.2 66 23.5 100140 56
2004-08-18 11:46 51°14.446 2°54.418 12.1 68 23.5 100120 55
2004-08-18 11:47 51°14.445 2°54.738 9.6 30 23.6 100130 56
2004-08-18 11:48 51°14.389 2°55.014 10.7 30 23.7 100120 54